Time;durP1;ratioP1;P1;durP2;ratioP2;P2;SDS_P1;SDS_P2;PMS_P1;PMS_P2;Temp;Humidity;BMP_temperature;BMP_pressure;BME280_temperature;BME280_humidity;BME280_pressure;Samples;Min_cycle;Max_cycle;Signal;HPM_P1;HPM_P2
2021/03/26 00:02:05;;;;;;;58.67;33.60;;;9.00;77.40;;;;;;5095063;28;20032;-66
2021/03/26 00:04:31;;;;;;;63.27;33.97;;;8.90;77.90;;;;;;5107042;28;20031;-66
2021/03/26 00:06:57;;;;;;;62.30;35.40;;;8.90;78.10;;;;;;5099742;28;20048;-66
2021/03/26 00:09:29;;;;;;;63.73;36.00;;;8.80;78.30;;;;;;5099926;28;20052;-62
2021/03/26 00:11:58;;;;;;;66.00;35.33;;;8.70;78.30;;;;;;5107425;28;20035;-63
2021/03/26 00:14:23;;;;;;;60.00;33.83;;;8.60;78.40;;;;;;5073031;28;20165;-62
2021/03/26 00:16:49;;;;;;;62.20;33.40;;;8.60;78.90;;;;;;5098205;28;20131;-61
2021/03/26 00:19:15;;;;;;;66.50;35.30;;;8.50;79.20;;;;;;5101460;28;20403;-61
2021/03/26 00:21:41;;;;;;;63.77;35.90;;;8.40;79.20;;;;;;5104313;28;20039;-62
2021/03/26 00:24:07;;;;;;;72.37;37.50;;;8.40;79.30;;;;;;5076762;28;20035;-61
2021/03/26 00:26:33;;;;;;;72.37;37.27;;;8.40;79.60;;;;;;5107136;28;20024;-62
2021/03/26 00:28:59;;;;;;;73.40;36.63;;;8.30;80.00;;;;;;5099131;28;20030;-61
2021/03/26 00:31:24;;;;;;;66.87;34.53;;;8.20;79.90;;;;;;5099477;28;20060;-61
2021/03/26 00:33:50;;;;;;;64.90;33.53;;;8.20;80.40;;;;;;5106183;28;20122;-61
2021/03/26 00:36:16;;;;;;;68.20;34.40;;;8.20;80.50;;;;;;5094637;28;20396;-61
2021/03/26 00:38:42;;;;;;;76.80;37.70;;;8.10;80.60;;;;;;5105610;28;20028;-61
2021/03/26 00:41:08;;;;;;;70.00;34.13;;;8.10;80.80;;;;;;5100001;28;20399;-65
2021/03/26 00:43:34;;;;;;;69.90;34.87;;;8.00;80.70;;;;;;5098284;28;20032;-66
2021/03/26 00:46:00;;;;;;;61.33;31.13;;;8.00;81.00;;;;;;5107595;28;20043;-63
2021/03/26 00:48:27;;;;;;;69.87;35.07;;;8.00;81.20;;;;;;5094350;28;20028;-63
2021/03/26 00:50:56;;;;;;;67.87;35.33;;;7.90;81.10;;;;;;5103544;28;20028;-63
2021/03/26 00:53:27;;;;;;;75.70;36.83;;;7.90;81.10;;;;;;5102734;28;20036;-64
2021/03/26 00:55:54;;;;;;;69.23;36.30;;;7.80;81.50;;;;;;5058990;28;20048;-63
2021/03/26 00:58:21;;;;;;;70.13;35.53;;;7.80;81.70;;;;;;5106566;28;20514;-62
2021/03/26 01:00:47;;;;;;;64.07;33.37;;;7.70;81.70;;;;;;5062356;28;20031;-62
2021/03/26 01:03:15;;;;;;;68.30;35.47;;;7.70;82.00;;;;;;5082268;28;20040;-62
2021/03/26 01:05:45;;;;;;;65.13;33.33;;;7.60;82.10;;;;;;5105182;28;20023;-61
2021/03/26 01:08:11;;;;;;;68.07;33.50;;;7.60;82.20;;;;;;5094489;28;20119;-61
2021/03/26 01:10:44;;;;;;;72.93;36.57;;;7.50;82.00;;;;;;5086823;28;20056;-61
2021/03/26 01:13:15;;;;;;;64.43;32.87;;;7.50;82.10;;;;;;5082735;28;20040;-61
2021/03/26 01:15:41;;;;;;;71.73;34.87;;;7.40;82.20;;;;;;5068761;28;20041;-61
2021/03/26 01:18:14;;;;;;;70.53;34.00;;;7.40;82.40;;;;;;5103882;28;20067;-60
2021/03/26 01:20:39;;;;;;;71.32;34.65;;;7.30;82.50;;;;;;5095629;28;20039;-60
2021/03/26 01:23:07;;;;;;;76.90;34.70;;;7.30;82.80;;;;;;5101820;28;20133;-60
2021/03/26 01:25:39;;;;;;;61.73;32.10;;;7.30;83.10;;;;;;5085473;28;20085;-60
2021/03/26 01:28:44;;;;;;;71.30;33.28;;;7.20;82.90;;;;;;5053679;28;20039;-60
2021/03/26 01:31:42;;;;;;;68.77;33.73;;;7.10;82.80;;;;;;5080826;28;20043;-60
2021/03/26 01:34:08;;;;;;;66.17;32.07;;;7.10;83.10;;;;;;5109559;28;20092;-60
2021/03/26 01:36:38;;;;;;;64.10;31.92;;;7.00;83.30;;;;;;5081195;28;20518;-60
2021/03/26 01:39:08;;;;;;;64.03;32.50;;;7.00;83.30;;;;;;5105553;28;20054;-60
2021/03/26 01:41:44;;;;;;;64.47;32.70;;;6.90;83.10;;;;;;5107804;28;20495;-60
2021/03/26 01:44:17;;;;;;;74.17;35.17;;;6.90;83.20;;;;;;5079281;28;20108;-60
2021/03/26 01:46:46;;;;;;;70.33;33.13;;;6.80;83.20;;;;;;5108698;28;20044;-60
2021/03/26 01:49:13;;;;;;;69.05;33.35;;;6.80;83.40;;;;;;5085885;28;20432;-60
2021/03/26 01:51:42;;;;;;;65.50;33.00;;;6.70;83.50;;;;;;5100535;28;20031;-60
2021/03/26 01:54:11;;;;;;;66.07;33.70;;;6.70;83.60;;;;;;5092519;28;20031;-60
2021/03/26 01:56:37;;;;;;;68.27;33.77;;;6.60;83.60;;;;;;5081235;28;20505;-61
2021/03/26 01:59:32;;;;;;;63.63;32.20;;;6.60;83.80;;;;;;5087561;28;20034;-60
2021/03/26 02:02:07;;;;;;;67.90;32.63;;;6.50;83.70;;;;;;5092652;28;20067;-61
2021/03/26 02:04:49;;;;;;;55.57;29.13;;;6.50;83.90;;;;;;5067786;28;20038;-62
2021/03/26 02:07:41;;;;;;;60.50;30.53;;;6.50;83.90;;;;;;5067933;28;20097;-61
2021/03/26 02:10:12;;;;;;;64.23;32.53;;;6.40;83.90;;;;;;5092497;28;20055;-61
2021/03/26 02:12:39;;;;;;;68.00;32.53;;;6.40;84.00;;;;;;5098909;28;20119;-62
2021/03/26 02:15:21;;;;;;;60.73;30.50;;;6.30;84.60;;;;;;5104069;28;20119;-60
2021/03/26 02:17:49;;;;;;;67.67;33.53;;;6.30;84.20;;;;;;5073592;28;20035;-59
2021/03/26 02:20:30;;;;;;;57.90;30.50;;;6.20;84.30;;;;;;5078988;28;20035;-60
2021/03/26 02:23:06;;;;;;;59.50;29.53;;;6.10;84.50;;;;;;5087439;28;20058;-59
2021/03/26 02:25:34;;;;;;;60.90;30.63;;;6.10;84.50;;;;;;5088686;28;20059;-60
2021/03/26 02:28:00;;;;;;;54.23;28.20;;;6.00;84.50;;;;;;5096518;28;20059;-63
2021/03/26 02:30:30;;;;;;;59.83;29.80;;;6.00;84.50;;;;;;5078768;28;20395;-63
2021/03/26 02:32:57;;;;;;;68.05;30.92;;;6.60;85.00;;;;;;5087704;28;20028;-61
2021/03/26 02:35:31;;;;;;;64.93;30.75;;;5.90;85.30;;;;;;5087299;28;20040;-61
2021/03/26 02:38:25;;;;;;;65.47;30.93;;;5.90;85.70;;;;;;5081652;28;20043;-61
2021/03/26 02:41:08;;;;;;;62.10;30.67;;;5.90;85.70;;;;;;5095407;28;20578;-61
2021/03/26 02:43:51;;;;;;;62.57;29.30;;;5.90;85.80;;;;;;5082117;28;20025;-61
2021/03/26 02:46:34;;;;;;;56.93;29.33;;;5.90;86.10;;;;;;5091168;28;20039;-64
2021/03/26 02:49:20;;;;;;;54.50;28.77;;;5.90;85.90;;;;;;5083881;28;20023;-66
2021/03/26 02:51:52;;;;;;;64.03;30.93;;;5.80;85.50;;;;;;5079733;28;20039;-66
2021/03/26 02:54:23;;;;;;;63.10;28.73;;;5.80;85.60;;;;;;5091762;28;20046;-66
2021/03/26 02:56:56;;;;;;;62.57;29.80;;;5.70;85.70;;;;;;5081487;28;20143;-66
2021/03/26 02:59:30;;;;;;;53.03;27.67;;;5.70;85.80;;;;;;5083535;28;20044;-66
2021/03/26 03:02:01;;;;;;;60.90;29.70;;;5.60;85.80;;;;;;5090797;28;20040;-66
2021/03/26 03:05:00;;;;;;;59.20;29.00;;;5.60;85.90;;;;;;5066162;28;20028;-64
2021/03/26 03:07:32;;;;;;;61.90;29.60;;;5.60;85.80;;;;;;5101288;28;20047;-65
2021/03/26 03:10:48;;;;;;;58.75;29.25;;;5.50;85.90;;;;;;5109370;28;20113;-66
2021/03/26 03:13:32;;;;;;;64.20;29.00;;;5.40;86.00;;;;;;5084844;28;20035;-65
2021/03/26 03:16:22;;;;;;;63.10;30.07;;;5.40;86.40;;;;;;5095107;28;20039;-66
2021/03/26 03:18:57;;;;;;;74.60;33.03;;;5.40;86.50;;;;;;5069470;28;20415;-69
2021/03/26 03:21:34;;;;;;;68.40;31.27;;;5.40;87.10;;;;;;5084704;28;20442;-66
2021/03/26 03:24:36;;;;;;;63.00;30.40;;;5.40;87.40;;;;;;5092363;28;20602;-66
2021/03/26 03:27:06;;;;;;;68.10;31.23;;;5.50;87.60;;;;;;5084247;28;20036;-65
2021/03/26 03:29:45;;;;;;;76.22;33.47;;;5.50;87.10;;;;;;5082553;28;20560;-69
2021/03/26 03:32:49;;;;;;;65.37;30.63;;;5.50;87.40;;;;;;5091960;28;20032;-66
2021/03/26 03:35:22;;;;;;;75.03;32.57;;;5.40;87.50;;;;;;5083203;28;20039;-66
2021/03/26 03:38:26;;;;;;;64.70;30.93;;;5.50;88.10;;;;;;5079761;28;20036;-66
2021/03/26 03:40:59;;;;;;;78.00;33.07;;;5.50;87.70;;;;;;5071853;28;20036;-66
2021/03/26 03:43:47;;;;;;;58.57;29.00;;;5.50;87.70;;;;;;5079063;28;20035;-66
2021/03/26 03:46:25;;;;;;;71.93;32.90;;;5.50;88.00;;;;;;5077342;28;20032;-66
2021/03/26 03:49:31;;;;;;;78.20;33.90;;;5.50;87.70;;;;;;5103170;28;20079;-66
2021/03/26 03:52:31;;;;;;;82.33;36.27;;;5.50;88.10;;;;;;5078833;28;20119;-66
2021/03/26 03:55:09;;;;;;;74.40;34.23;;;5.50;88.40;;;;;;5071346;28;20059;-66
2021/03/26 03:57:47;;;;;;;72.87;32.50;;;5.50;88.30;;;;;;5103809;28;20067;-66
2021/03/26 04:00:26;;;;;;;61.37;29.93;;;5.50;88.60;;;;;;5086031;28;20058;-67
2021/03/26 04:03:11;;;;;;;70.83;32.47;;;5.40;88.20;;;;;;5087068;28;20028;-69
2021/03/26 04:05:51;;;;;;;58.73;28.93;;;5.50;88.50;;;;;;5085065;28;20032;-66
2021/03/26 04:08:35;;;;;;;100.77;37.77;;;5.40;88.30;;;;;;5111913;28;20032;-67
2021/03/26 04:11:24;;;;;;;88.53;35.97;;;5.40;88.40;;;;;;5084216;28;20031;-66
2021/03/26 04:14:19;;;;;;;79.47;36.23;;;5.40;88.60;;;;;;5080973;28;20085;-66
2021/03/26 04:16:51;;;;;;;93.73;37.57;;;5.40;88.70;;;;;;5081046;28;20046;-61
2021/03/26 04:19:23;;;;;;;96.47;37.90;;;5.30;88.90;;;;;;5083431;28;20123;-61
2021/03/26 04:21:59;;;;;;;98.33;40.13;;;5.40;89.50;;;;;;5090428;28;20046;-61
2021/03/26 04:24:41;;;;;;;100.77;38.90;;;5.40;89.30;;;;;;5058968;28;20146;-61
2021/03/26 04:27:26;;;;;;;102.43;40.28;;;5.40;89.60;;;;;;5102293;28;20032;-61
2021/03/26 04:30:13;;;;;;;88.80;36.63;;;5.40;89.70;;;;;;5094145;28;20522;-61
2021/03/26 04:32:55;;;;;;;87.00;37.47;;;5.40;89.60;;;;;;5087855;28;20036;-61
2021/03/26 04:35:23;;;;;;;103.73;40.13;;;5.40;90.00;;;;;;5067696;28;20398;-61
2021/03/26 04:38:11;;;;;;;107.53;42.53;;;5.40;89.30;;;;;;5077602;28;20059;-61
2021/03/26 04:41:03;;;;;;;98.70;38.63;;;5.40;89.30;;;;;;5088890;28;20107;-61
2021/03/26 04:43:46;;;;;;;108.80;42.17;;;5.30;89.30;;;;;;5079332;28;20044;-61
2021/03/26 04:46:25;;;;;;;89.97;37.70;;;5.30;89.70;;;;;;5089508;28;20108;-66
2021/03/26 04:49:28;;;;;;;72.57;33.90;;;5.30;89.70;;;;;;5085934;28;20084;-66
2021/03/26 04:52:03;;;;;;;84.73;36.10;;;5.30;89.30;;;;;;5075655;28;20482;-66
2021/03/26 04:54:49;;;;;;;108.03;41.03;;;5.20;89.30;;;;;;5061862;28;20401;-66
2021/03/26 04:57:55;;;;;;;89.23;37.43;;;5.20;90.00;;;;;;5096199;28;20054;-65
2021/03/26 05:00:35;;;;;;;105.60;39.83;;;5.20;90.10;;;;;;5088436;28;20059;-66
2021/03/26 05:03:07;;;;;;;100.93;40.43;;;5.20;90.10;;;;;;5098704;28;20036;-66
2021/03/26 05:05:40;;;;;;;84.80;37.03;;;5.30;90.20;;;;;;5078905;28;20042;-64
2021/03/26 05:08:24;;;;;;;99.40;39.73;;;5.30;90.30;;;;;;5088837;28;20032;-66
2021/03/26 05:11:20;;;;;;;100.10;39.87;;;5.30;90.30;;;;;;5060808;28;20044;-66
2021/03/26 05:13:49;;;;;;;;;;;5.30;90.50;;;;;;5078190;28;20392;-66
2021/03/26 05:16:32;;;;;;;79.53;34.10;;;5.40;90.60;;;;;;5088083;28;19912;-66
2021/03/26 05:19:46;;;;;;;97.40;38.60;;;5.40;90.40;;;;;;5100490;28;20060;-64
2021/03/26 05:22:25;;;;;;;102.77;40.30;;;5.50;90.60;;;;;;5074153;28;20036;-66
2021/03/26 05:25:12;;;;;;;83.83;37.17;;;5.50;90.80;;;;;;5100666;28;20585;-66
2021/03/26 05:28:11;;;;;;;94.40;40.13;;;5.60;90.80;;;;;;5074659;28;20403;-61
2021/03/26 05:30:40;;;;;;;72.33;35.07;;;5.70;90.80;;;;;;5094705;28;20050;-65
2021/03/26 05:33:09;;;;;;;51.77;27.23;;;5.70;90.80;;;;;;5082776;28;20043;-65
2021/03/26 05:36:08;;;;;;;62.47;30.70;;;5.80;90.70;;;;;;5086154;28;20028;-66
2021/03/26 05:39:00;;;;;;;71.53;33.27;;;5.90;90.70;;;;;;5084384;28;20102;-65
2021/03/26 05:42:26;;;;;;;69.30;33.33;;;5.90;90.80;;;;;;5094476;28;20082;-65
2021/03/26 05:45:24;;;;;;;74.60;35.38;;;6.00;90.90;;;;;;5072773;28;20473;-66
2021/03/26 05:48:23;;;;;;;77.72;36.83;;;6.00;90.90;;;;;;5093116;28;20063;-66
2021/03/26 05:51:14;;;;;;;82.00;37.03;;;6.10;90.80;;;;;;5086284;28;20165;-66
2021/03/26 05:54:04;;;;;;;77.73;36.10;;;6.20;90.80;;;;;;5104838;28;20077;-65
2021/03/26 05:56:49;;;;;;;84.20;38.60;;;6.20;90.70;;;;;;5061657;28;20040;-64
2021/03/26 05:59:41;;;;;;;73.23;35.00;;;6.20;90.80;;;;;;5081773;28;20036;-61
2021/03/26 06:02:53;;;;;;;81.17;36.33;;;6.20;90.80;;;;;;5087670;28;20114;-66
2021/03/26 06:06:16;;;;;;;72.70;34.07;;;6.30;90.80;;;;;;5000404;28;20637;-66
2021/03/26 06:09:25;;;;;;;68.57;33.60;;;6.40;90.80;;;;;;5086129;28;20541;-66
2021/03/26 06:12:43;;;;;;;74.50;35.07;;;6.40;90.90;;;;;;5091877;28;20050;-66
2021/03/26 06:16:05;;;;;;;67.43;33.30;;;6.50;91.10;;;;;;5097422;28;20047;-65
2021/03/26 06:19:10;;;;;;;63.40;33.53;;;6.80;91.30;;;;;;5067052;28;20050;-66
2021/03/26 06:22:07;;;;;;;62.40;32.97;;;7.10;91.50;;;;;;5095001;28;20040;-65
2021/03/26 06:25:33;;;;;;;58.20;32.43;;;7.40;91.70;;;;;;5079445;28;20039;-65
2021/03/26 06:28:25;;;;;;;50.73;29.00;;;7.90;91.60;;;;;;5082955;28;20035;-66
2021/03/26 06:31:28;;;;;;;53.67;30.60;;;8.30;91.60;;;;;;5086867;28;20105;-66
2021/03/26 06:34:36;;;;;;;52.63;29.77;;;8.70;91.30;;;;;;5103247;28;20105;-65
2021/03/26 06:37:23;;;;;;;54.23;31.53;;;9.00;91.20;;;;;;5103906;28;20086;-65
2021/03/26 06:40:15;;;;;;;48.80;29.33;;;9.20;91.10;;;;;;5107813;28;20399;-62
2021/03/26 06:43:13;;;;;;;48.53;29.43;;;9.50;91.00;;;;;;5064880;28;20422;-66
2021/03/26 06:45:49;;;;;;;49.40;29.47;;;9.70;90.70;;;;;;5085995;28;20032;-66
2021/03/26 06:48:24;;;;;;;50.17;29.63;;;9.90;90.40;;;;;;5095154;28;20063;-66
2021/03/26 06:51:22;;;;;;;48.50;29.77;;;10.20;90.40;;;;;;5105552;28;20043;-66
2021/03/26 06:53:53;;;;;;;48.22;29.35;;;10.60;90.20;;;;;;5079518;28;20403;-66
2021/03/26 06:56:28;;;;;;;46.47;28.13;;;11.30;90.60;;;;;;5096218;28;20404;-66
2021/03/26 06:59:18;;;;;;;43.88;28.30;;;11.90;89.80;;;;;;5087079;28;20480;-66
2021/03/26 07:01:54;;;;;;;40.97;26.73;;;12.50;90.00;;;;;;5088921;28;20027;-65
2021/03/26 07:04:29;;;;;;;40.50;26.50;;;13.30;89.80;;;;;;5096538;28;20173;-66
2021/03/26 07:07:33;;;;;;;40.20;27.45;;;14.30;89.90;;;;;;5096105;28;20056;-67
2021/03/26 07:10:34;;;;;;;38.55;26.48;;;15.20;87.30;;;;;;5108735;28;20479;-67
2021/03/26 07:13:21;;;;;;;36.38;25.50;;;16.20;85.20;;;;;;5069991;28;20491;-67
2021/03/26 07:16:07;;;;;;;35.25;24.90;;;17.00;82.50;;;;;;5107924;28;20070;-67
2021/03/26 07:19:02;;;;;;;36.75;26.05;;;17.80;81.40;;;;;;5080703;28;20050;-67
2021/03/26 07:21:37;;;;;;;35.90;26.60;;;18.50;77.40;;;;;;5098207;28;20119;-67
2021/03/26 07:24:15;;;;;;;34.25;26.10;;;19.10;72.30;;;;;;5108831;28;20036;-67
2021/03/26 07:27:05;;;;;;;33.97;26.00;;;19.60;70.40;;;;;;5090306;28;20131;-67
2021/03/26 07:29:58;;;;;;;37.33;26.88;;;20.30;69.60;;;;;;5098636;28;20412;-67
2021/03/26 07:32:28;;;;;;;34.85;25.52;;;20.80;65.90;;;;;;5107418;28;20036;-67
2021/03/26 07:35:09;;;;;;;;;;;20.90;63.50;;;;;;5081522;28;20035;-68
2021/03/26 07:37:47;;;;;;;36.42;26.73;;;21.20;62.60;;;;;;5098204;28;19916;-67
2021/03/26 07:40:49;;;;;;;32.88;25.85;;;21.60;59.70;;;;;;5108095;28;20057;-68
2021/03/26 07:43:36;;;;;;;32.00;26.05;;;21.60;57.50;;;;;;5101320;28;20044;-68
2021/03/26 07:46:31;;;;;;;33.85;26.48;;;21.80;57.50;;;;;;5094032;28;20446;-67
2021/03/26 07:49:11;;;;;;;35.78;26.42;;;22.30;56.20;;;;;;5103574;28;20039;-68
2021/03/26 07:52:04;;;;;;;32.85;26.73;;;22.90;54.10;;;;;;5103466;28;20817;-68
2021/03/26 07:54:48;;;;;;;33.55;26.33;;;23.40;52.10;;;;;;5078638;28;20039;-67
2021/03/26 07:57:22;;;;;;;29.60;24.17;;;23.70;50.60;;;;;;5100717;28;20684;-67
2021/03/26 08:00:08;;;;;;;31.60;26.98;;;24.30;49.40;;;;;;5105342;28;20566;-66
2021/03/26 08:03:14;;;;;;;31.65;25.52;;;24.90;48.20;;;;;;5080705;28;20037;-68
2021/03/26 08:06:01;;;;;;;29.10;24.95;;;25.50;46.90;;;;;;5096808;28;20040;-68
2021/03/26 08:08:33;;;;;;;31.35;24.52;;;26.10;46.00;;;;;;5078448;28;20060;-68
2021/03/26 08:11:23;;;;;;;31.02;25.73;;;26.40;45.50;;;;;;5083551;28;20506;-68
2021/03/26 08:14:07;;;;;;;27.25;23.70;;;26.60;44.20;;;;;;5105795;28;20088;-68
2021/03/26 08:16:52;;;;;;;31.02;26.90;;;27.20;43.30;;;;;;5078569;28;20515;-69
2021/03/26 08:19:36;;;;;;;27.27;23.13;;;27.80;41.20;;;;;;5101664;28;20031;-68
2021/03/26 08:22:35;;;;;;;28.98;24.90;;;27.60;39.80;;;;;;5093255;28;20036;-68
2021/03/26 08:25:38;;;;;;;28.20;24.85;;;27.90;40.80;;;;;;5102721;28;20055;-69
2021/03/26 08:28:14;;;;;;;27.92;24.92;;;29.10;40.30;;;;;;5095623;28;20024;-68
2021/03/26 08:31:01;;;;;;;28.13;24.85;;;29.70;36.40;;;;;;5104561;28;20032;-69
2021/03/26 08:33:44;;;;;;;27.80;24.77;;;29.80;35.40;;;;;;5102182;28;20092;-68
2021/03/26 08:36:37;;;;;;;30.83;26.00;;;29.60;34.40;;;;;;5094267;28;20484;-69
2021/03/26 08:39:02;;;;;;;27.63;24.55;;;29.00;34.20;;;;;;5101630;28;20051;-68
2021/03/26 08:41:41;;;;;;;29.73;25.20;;;27.80;33.60;;;;;;5102245;28;20469;-67
2021/03/26 08:44:19;;;;;;;27.45;23.65;;;26.20;33.50;;;;;;5093103;28;20039;-67
2021/03/26 08:46:52;;;;;;;27.58;23.60;;;24.80;35.90;;;;;;5079942;22;20043;-68
2021/03/26 08:49:25;;;;;;;28.52;23.90;;;24.40;37.40;;;;;;5049540;28;20037;-67
2021/03/26 08:52:23;;;;;;;28.00;23.23;;;24.60;37.30;;;;;;5065530;28;20025;-64
2021/03/26 08:55:01;;;;;;;27.80;21.17;;;25.70;37.20;;;;;;5043036;28;20491;-64
2021/03/26 08:57:45;;;;;;;25.30;21.17;;;26.20;36.60;;;;;;5039986;28;20125;-64
2021/03/26 09:00:31;;;;;;;25.02;20.00;;;27.50;36.40;;;;;;5065799;28;20071;-63
2021/03/26 09:03:26;;;;;;;24.45;20.13;;;29.40;34.80;;;;;;5039573;28;20032;-64
2021/03/26 09:06:07;;;;;;;22.45;19.00;;;30.70;33.60;;;;;;5053712;28;20458;-64
2021/03/26 09:08:43;;;;;;;21.40;18.63;;;31.50;31.90;;;;;;5039309;28;20033;-64
2021/03/26 09:11:32;;;;;;;23.88;20.00;;;31.90;30.60;;;;;;5059077;28;20501;-63
2021/03/26 09:14:23;;;;;;;25.58;20.65;;;32.20;30.30;;;;;;5057714;28;20041;-64
2021/03/26 09:16:56;;;;;;;21.52;19.23;;;32.30;29.80;;;;;;5042624;28;20036;-63
2021/03/26 09:19:49;;;;;;;23.00;18.88;;;32.10;29.20;;;;;;5058489;28;20033;-63
2021/03/26 09:22:52;;;;;;;19.73;16.38;;;33.00;29.50;;;;;;5065875;28;20025;-63
2021/03/26 09:25:24;;;;;;;19.38;15.77;;;33.40;28.70;;;;;;5060418;28;20033;-64
2021/03/26 09:27:59;;;;;;;20.55;16.63;;;33.80;27.80;;;;;;5054604;28;20044;-64
2021/03/26 09:30:27;;;;;;;19.92;16.05;;;34.30;27.70;;;;;;5036684;28;20108;-65
2021/03/26 09:33:13;;;;;;;20.80;15.77;;;34.10;26.70;;;;;;5062982;28;20460;-63
2021/03/26 09:35:49;;;;;;;19.55;15.30;;;33.50;26.60;;;;;;5063107;28;20028;-65
2021/03/26 09:38:21;;;;;;;18.27;13.73;;;33.80;26.90;;;;;;5053300;28;20068;-63
2021/03/26 09:41:12;;;;;;;18.75;15.25;;;34.20;26.70;;;;;;5062107;28;20040;-65
2021/03/26 09:44:17;;;;;;;18.10;14.73;;;34.70;26.40;;;;;;5062525;28;20119;-65
2021/03/26 09:47:04;;;;;;;17.73;15.70;;;34.50;25.50;;;;;;5041237;28;20098;-65
2021/03/26 09:49:52;;;;;;;18.10;14.82;;;33.50;25.30;;;;;;5056930;28;20485;-64
2021/03/26 09:52:22;;;;;;;17.48;13.88;;;32.40;25.90;;;;;;5065400;28;20471;-67
2021/03/26 09:54:51;;;;;;;16.50;13.02;;;32.50;25.90;;;;;;5055800;28;20124;-69
2021/03/26 09:57:36;;;;;;;;;;;33.20;25.80;;;;;;5062544;28;20093;-67
2021/03/26 10:00:02;;;;;;;16.13;11.35;;;33.80;26.30;;;;;;5069336;28;19991;-68
2021/03/26 10:02:41;;;;;;;13.88;10.23;;;35.40;25.90;;;;;;5057731;28;20090;-68
2021/03/26 10:05:20;;;;;;;15.43;11.07;;;35.30;24.50;;;;;;5063264;28;20098;-67
2021/03/26 10:08:07;;;;;;;13.50;10.60;;;32.80;23.50;;;;;;5067477;28;20060;-67
2021/03/26 10:13:03;;;;;;;15.15;11.18;;;29.60;25.80;;;;;;5063923;28;20041;-68
2021/03/26 10:15:58;;;;;;;17.23;12.10;;;30.30;26.80;;;;;;5065191;28;20042;-68
2021/03/26 10:18:28;;;;;;;16.08;10.80;;;30.60;25.10;;;;;;5055688;28;20075;-66
2021/03/26 10:21:00;;;;;;;14.90;10.80;;;28.60;26.20;;;;;;5047286;28;20063;-66
2021/03/26 10:23:33;;;;;;;14.60;10.52;;;29.00;27.10;;;;;;5046892;28;20040;-67
2021/03/26 10:26:06;;;;;;;16.13;10.73;;;28.80;26.30;;;;;;5056388;28;20047;-67
2021/03/26 10:28:32;;;;;;;15.75;10.57;;;29.30;26.70;;;;;;5049996;28;20447;-67
2021/03/26 10:31:07;;;;;;;15.27;10.68;;;29.70;26.60;;;;;;5060429;28;20041;-67
2021/03/26 10:33:43;;;;;;;15.27;10.65;;;31.00;26.60;;;;;;5059553;28;20044;-66
2021/03/26 10:36:23;;;;;;;15.85;10.38;;;31.00;25.50;;;;;;5068891;28;20735;-66
2021/03/26 10:39:00;;;;;;;14.07;10.85;;;29.80;26.10;;;;;;5041139;28;20490;-67
2021/03/26 10:41:54;;;;;;;15.48;11.13;;;29.30;26.30;;;;;;5060021;28;20558;-67
2021/03/26 10:44:38;;;;;;;13.93;9.65;;;29.40;26.70;;;;;;5068676;28;20485;-68
2021/03/26 10:47:16;;;;;;;15.60;10.73;;;28.90;26.30;;;;;;5060524;28;20040;-67
2021/03/26 10:49:56;;;;;;;14.20;10.88;;;28.00;26.20;;;;;;5058002;28;20579;-66
2021/03/26 10:52:51;;;;;;;14.18;10.02;;;26.60;26.20;;;;;;5067916;28;20029;-67
2021/03/26 10:55:22;;;;;;;14.48;10.85;;;25.10;27.40;;;;;;5059853;28;20048;-67
2021/03/26 10:58:04;;;;;;;16.33;11.55;;;24.50;28.30;;;;;;5071054;28;20443;-68
2021/03/26 11:00:57;;;;;;;15.43;10.43;;;23.90;28.60;;;;;;5039780;28;20109;-68
2021/03/26 11:03:35;;;;;;;15.25;11.20;;;23.00;29.10;;;;;;5056788;28;20040;-65
2021/03/26 11:06:29;;;;;;;15.77;10.50;;;22.30;30.10;;;;;;5067730;28;20041;-67
2021/03/26 11:09:11;;;;;;;14.27;9.70;;;22.10;30.70;;;;;;5058729;28;20047;-66
2021/03/26 11:11:59;;;;;;;13.68;9.70;;;21.90;30.90;;;;;;5056689;28;20090;-65
2021/03/26 11:14:50;;;;;;;14.13;8.98;;;21.60;31.10;;;;;;5039044;28;20555;-66
2021/03/26 11:17:48;;;;;;;12.13;7.72;;;21.20;31.30;;;;;;5059158;28;20037;-66
2021/03/26 11:20:22;;;;;;;13.98;8.63;;;20.90;32.40;;;;;;5049237;28;20146;-67
2021/03/26 11:23:26;;;;;;;13.73;8.60;;;21.00;32.90;;;;;;5057841;28;20033;-67
2021/03/26 11:26:32;;;;;;;12.85;8.43;;;21.10;32.50;;;;;;5054082;28;20037;-67
2021/03/26 11:29:06;;;;;;;12.05;8.32;;;20.90;32.50;;;;;;5044557;28;20124;-67
2021/03/26 11:31:40;;;;;;;12.48;8.32;;;20.90;32.70;;;;;;5056074;28;20550;-67
2021/03/26 11:34:19;;;;;;;12.90;7.70;;;20.80;33.00;;;;;;5065161;28;20071;-67
2021/03/26 11:36:48;;;;;;;13.90;8.57;;;21.00;33.20;;;;;;5055417;28;20040;-67
2021/03/26 11:39:38;;;;;;;13.48;8.50;;;21.00;32.90;;;;;;5059090;28;20063;-72
2021/03/26 11:42:07;;;;;;;13.88;7.95;;;21.10;33.30;;;;;;5065633;28;20020;-64
2021/03/26 11:44:42;;;;;;;14.00;7.55;;;21.20;33.10;;;;;;5055111;28;20036;-64
2021/03/26 11:47:26;;;;;;;14.73;7.75;;;21.20;33.20;;;;;;5061585;28;20501;-64
2021/03/26 11:50:01;;;;;;;11.50;7.18;;;21.10;32.90;;;;;;5066306;28;20120;-63
2021/03/26 11:52:36;;;;;;;10.95;6.85;;;20.90;32.90;;;;;;5066356;28;20037;-63
2021/03/26 11:55:30;;;;;;;13.25;7.38;;;20.90;33.10;;;;;;5041607;28;20055;-64
2021/03/26 11:58:44;;;;;;;10.98;6.85;;;20.90;33.20;;;;;;5053961;28;20101;-64
2021/03/26 12:01:10;;;;;;;11.20;6.90;;;20.70;33.20;;;;;;4973620;28;20130;-63
2021/03/26 12:04:00;;;;;;;12.05;7.03;;;20.60;33.50;;;;;;5051366;28;20116;-63
2021/03/26 12:06:35;;;;;;;13.63;7.85;;;20.60;33.50;;;;;;5037822;28;20039;-64
2021/03/26 12:09:14;;;;;;;12.52;7.05;;;20.40;33.40;;;;;;5061884;28;20106;-66
2021/03/26 12:11:42;;;;;;;13.15;7.72;;;20.30;33.70;;;;;;5064132;28;20400;-63
2021/03/26 12:14:32;;;;;;;11.98;7.15;;;20.30;34.10;;;;;;5051987;28;20115;-62
2021/03/26 12:17:03;;;;;;;10.95;7.07;;;20.10;33.60;;;;;;5058604;28;20623;-62
2021/03/26 12:19:34;;;;;;;10.80;6.00;;;20.00;34.40;;;;;;5057861;28;20067;-63
2021/03/26 12:22:30;;;;;;;10.90;6.20;;;20.40;34.50;;;;;;5066746;28;20040;-63
2021/03/26 12:25:09;;;;;;;10.25;6.40;;;20.60;33.50;;;;;;5058285;28;20107;-63
2021/03/26 12:27:35;;;;;;;11.52;6.50;;;20.70;33.30;;;;;;5039848;28;20037;-62
2021/03/26 12:30:07;;;;;;;9.43;5.78;;;20.80;33.30;;;;;;5066600;28;20103;-64
2021/03/26 12:32:43;;;;;;;10.98;5.78;;;21.50;33.70;;;;;;5037352;28;20463;-63
2021/03/26 12:35:43;;;;;;;9.43;5.93;;;22.80;33.60;;;;;;5060618;28;20040;-62
2021/03/26 12:38:26;;;;;;;;;;;24.50;32.30;;;;;;5067297;28;20123;-63
2021/03/26 12:40:54;;;;;;;10.75;6.07;;;25.30;30.60;;;;;;5049973;28;19925;-63
2021/03/26 12:43:30;;;;;;;10.02;6.10;;;25.60;29.90;;;;;;5050080;28;20040;-63
2021/03/26 12:46:11;;;;;;;11.23;6.22;;;25.90;29.60;;;;;;5050142;28;20044;-64
2021/03/26 12:48:45;;;;;;;12.63;6.75;;;26.20;29.00;;;;;;5049940;28;20040;-63
2021/03/26 12:51:10;;;;;;;11.05;6.00;;;26.30;28.50;;;;;;5050000;28;20381;-63
2021/03/26 12:53:46;;;;;;;9.80;5.72;;;26.50;28.40;;;;;;5050263;28;20128;-63
2021/03/26 12:56:27;;;;;;;11.43;6.40;;;26.30;27.70;;;;;;5050328;28;20039;-64
2021/03/26 12:59:14;;;;;;;10.27;7.20;;;25.60;27.40;;;;;;5046065;28;20033;-63
2021/03/26 13:02:03;;;;;;;12.02;6.90;;;24.60;27.50;;;;;;5047475;28;20060;-62
2021/03/26 13:04:36;;;;;;;12.05;7.38;;;24.40;28.50;;;;;;5049801;28;20041;-62
2021/03/26 13:07:28;;;;;;;11.15;7.20;;;24.10;28.40;;;;;;5049193;28;20037;-63
2021/03/26 13:10:21;;;;;;;11.20;7.30;;;23.10;28.10;;;;;;5048924;28;20386;-64
2021/03/26 13:12:48;;;;;;;10.98;7.50;;;22.30;29.00;;;;;;5060391;28;20047;-63
2021/03/26 13:15:23;;;;;;;12.20;7.97;;;21.80;29.70;;;;;;5069186;28;20043;-64
2021/03/26 13:18:00;;;;;;;11.40;7.70;;;22.20;30.60;;;;;;5070134;28;20040;-63
2021/03/26 13:20:26;;;;;;;11.32;7.43;;;23.30;30.80;;;;;;5069184;28;20119;-64
2021/03/26 13:22:57;;;;;;;11.82;7.65;;;23.90;29.80;;;;;;5068589;28;20579;-64
2021/03/26 13:25:43;;;;;;;11.95;8.45;;;24.20;29.70;;;;;;5068826;28;20432;-64
2021/03/26 13:28:36;;;;;;;13.35;9.10;;;24.50;29.40;;;;;;5069452;28;20085;-63
2021/03/26 13:31:22;;;;;;;12.23;9.02;;;24.70;29.20;;;;;;5062357;28;20119;-62
2021/03/26 13:34:03;;;;;;;13.52;7.60;;;24.60;29.20;;;;;;5072966;28;20058;-63
2021/03/26 13:36:52;;;;;;;12.05;8.68;;;24.50;29.20;;;;;;5073069;28;20047;-63
2021/03/26 13:39:27;;;;;;;16.83;10.77;;;23.90;29.20;;;;;;5073128;28;20140;-62
2021/03/26 13:42:17;;;;;;;14.70;10.15;;;23.10;29.00;;;;;;5074160;28;20039;-62
2021/03/26 13:44:50;;;;;;;15.02;11.23;;;22.00;29.70;;;;;;5072626;28;20036;-63
2021/03/26 13:47:30;;;;;;;15.75;11.05;;;21.20;31.00;;;;;;5073452;28;20098;-62
2021/03/26 13:50:01;;;;;;;16.10;11.63;;;20.70;31.60;;;;;;5073813;28;20613;-62
2021/03/26 13:52:33;;;;;;;19.98;13.18;;;20.50;32.60;;;;;;5073548;28;20059;-63